Kendall, Washington
Current Conditions -  °F | °C
As of 10:00 PM on Thursday 18 Dec 2014 (Local Time) from CYXX Reporting Station
Light Rain Light Rain  
Wind Chill:   Ceiling: 4000
Heat Index:   Visibility: 10mi
Dew Point:   Wind: 5mph
Humidity: 93%   Direction: 20°NNE
Pressure: 29.69"   Gusts: NA
Location:  48.8512°N, 121.903°W
Report Text: CYXX 190600Z 02004KT 010V090 10SM -RA BKN040 OVC070 07/06 A2969 RMK SC6AC2 SLP054
Loading
Personal Weather Stations






























Interactive Weather Map New forecast layout! Learn more

10-Day Weather Forecast

Advertisements
Track Severe Weather on mobile